Startpagina
METAR-TAF:

METAR-TAF

Vliegvelden :

Büchel, Duitsland

breedte: 50-10N, lengte: 007-04E, hoogte: 478 m

Actueel weer

Dit bericht is 51 minuten geleden gemaakt, om 00:20 UTC
Wind 9 kt uit het westzuidwesten
Temperatuur 3°C
Vochtigheid 93%
Druk 1014 hPa
Zicht: 5000 m

METAR: ETSB 190020Z AUTO 25009KT 5000 // ////// 03/02 Q1014 ///

Tijdstip: 02:11 (01:11 UTC)


TAF: ontbreekt

Waarnemingen en weersverwachtingen van meer dan 4000 vliegvelden (METAR en TAF).

De beschikbare stations zijn de gele en rode punten op de kaart.

Ga met uw muis naar het station om de naam te zien.

Klik dan om waarnemingen en weersverwachtingen te zien.

kaart wijzigen: klik op de groene knoppen met een zwart kruis om in te zoomen, op de groene knop met een streepje om uit te zoomen of op de groene pijlen voor aangrenzende kaarten.


METAR-TAF: